LGA weather

La Guardia Airport
New York, New York, United States

Public forecast

Using degrees Fahrenheit for public forecast. Weather courtesy of forecast.io.

METAR (pilot weather report)

Retrieved 2017/05/24 23:51 UTC (1 hour ago):

KLGA 242351Z 15005KT 10SM FEW029 SCT090 BKN250 18/09 A2979 RMK AO2 SLP087 T01830094 10206 20183 53007

TAF (pilot weather forecast)

Forecast is more than 12 hours old.

Retrieved 2017/05/24 00:39 UTC (1 day ago):

TAF KLGA 242337Z 2500/2524 18006KT P6SM SCT030 BKN070 FM250300 09007KT P6SM SCT030 BKN060 FM250600 08009KT P6SM BKN025 FM250900 07013KT 6SM -RA BR SCT008 BKN012 FM251200 07019G26KT 2SM -RA BR OVC005 FM251800 07012G20KT 2SM -RA BR OVC004